sensor_id;sensor_type;location;lat;lon;timestamp;P1;durP1;ratioP1;P2;durP2;ratioP2
15198;SDS011;7700;48.654;9.070;2023-04-25T00:01:14;4.93;;;2.77;;
15198;SDS011;7700;48.654;9.070;2023-04-25T00:03:40;2.80;;;2.60;;
15198;SDS011;7700;48.654;9.070;2023-04-25T00:06:06;2.83;;;2.63;;
15198;SDS011;7700;48.654;9.070;2023-04-25T00:08:33;2.80;;;2.60;;
15198;SDS011;7700;48.654;9.070;2023-04-25T00:10:59;2.97;;;2.77;;
15198;SDS011;7700;48.654;9.070;2023-04-25T00:13:25;2.47;;;2.27;;
15198;SDS011;7700;48.654;9.070;2023-04-25T00:15:51;3.10;;;2.50;;
15198;SDS011;7700;48.654;9.070;2023-04-25T00:18:21;2.63;;;2.43;;
15198;SDS011;7700;48.654;9.070;2023-04-25T00:20:47;2.90;;;2.70;;
15198;SDS011;7700;48.654;9.070;2023-04-25T00:23:13;2.70;;;2.50;;
15198;SDS011;7700;48.654;9.070;2023-04-25T00:25:47;2.80;;;2.60;;
15198;SDS011;7700;48.654;9.070;2023-04-25T00:28:13;3.17;;;2.90;;
15198;SDS011;7700;48.654;9.070;2023-04-25T00:30:40;3.07;;;2.60;;
15198;SDS011;7700;48.654;9.070;2023-04-25T00:33:06;2.73;;;2.53;;
15198;SDS011;7700;48.654;9.070;2023-04-25T00:35:32;2.67;;;2.47;;
15198;SDS011;7700;48.654;9.070;2023-04-25T00:37:58;2.50;;;2.30;;
15198;SDS011;7700;48.654;9.070;2023-04-25T00:40:24;2.90;;;2.63;;
15198;SDS011;7700;48.654;9.070;2023-04-25T00:42:54;4.17;;;3.03;;
15198;SDS011;7700;48.654;9.070;2023-04-25T00:45:20;4.00;;;3.60;;
15198;SDS011;7700;48.654;9.070;2023-04-25T00:47:46;6.00;;;4.40;;
15198;SDS011;7700;48.654;9.070;2023-04-25T00:50:12;4.70;;;3.80;;
15198;SDS011;7700;48.654;9.070;2023-04-25T00:52:43;4.80;;;4.23;;
15198;SDS011;7700;48.654;9.070;2023-04-25T00:55:09;5.03;;;4.27;;
15198;SDS011;7700;48.654;9.070;2023-04-25T00:57:36;5.40;;;3.83;;
15198;SDS011;7700;48.654;9.070;2023-04-25T01:00:02;4.23;;;3.53;;
15198;SDS011;7700;48.654;9.070;2023-04-25T01:02:30;5.63;;;3.90;;
15198;SDS011;7700;48.654;9.070;2023-04-25T01:04:57;4.20;;;3.87;;
15198;SDS011;7700;48.654;9.070;2023-04-25T01:07:23;3.77;;;3.47;;
15198;SDS011;7700;48.654;9.070;2023-04-25T01:09:49;5.63;;;3.40;;
15198;SDS011;7700;48.654;9.070;2023-04-25T01:12:16;3.80;;;3.50;;
15198;SDS011;7700;48.654;9.070;2023-04-25T01:14:42;3.50;;;3.13;;
15198;SDS011;7700;48.654;9.070;2023-04-25T01:17:09;4.23;;;3.20;;
15198;SDS011;7700;48.654;9.070;2023-04-25T01:19:35;3.40;;;3.10;;
15198;SDS011;7700;48.654;9.070;2023-04-25T01:22:01;3.87;;;3.57;;
15198;SDS011;7700;48.654;9.070;2023-04-25T01:24:28;5.07;;;4.40;;
15198;SDS011;7700;48.654;9.070;2023-04-25T01:26:54;5.30;;;3.67;;
15198;SDS011;7700;48.654;9.070;2023-04-25T01:29:21;4.50;;;3.60;;
15198;SDS011;7700;48.654;9.070;2023-04-25T01:31:47;2.67;;;2.47;;
15198;SDS011;7700;48.654;9.070;2023-04-25T01:34:13;5.00;;;3.07;;
15198;SDS011;7700;48.654;9.070;2023-04-25T01:36:39;4.47;;;3.57;;
15198;SDS011;7700;48.654;9.070;2023-04-25T01:39:06;3.03;;;2.80;;
15198;SDS011;7700;48.654;9.070;2023-04-25T01:41:32;2.70;;;2.50;;
15198;SDS011;7700;48.654;9.070;2023-04-25T01:43:59;3.30;;;3.00;;
15198;SDS011;7700;48.654;9.070;2023-04-25T01:46:25;3.87;;;2.90;;
15198;SDS011;7700;48.654;9.070;2023-04-25T01:48:51;2.83;;;2.60;;
15198;SDS011;7700;48.654;9.070;2023-04-25T01:51:17;4.30;;;3.07;;
15198;SDS011;7700;48.654;9.070;2023-04-25T01:53:43;3.83;;;2.90;;
15198;SDS011;7700;48.654;9.070;2023-04-25T01:56:09;3.30;;;3.10;;
15198;SDS011;7700;48.654;9.070;2023-04-25T01:58:35;2.90;;;2.60;;
15198;SDS011;7700;48.654;9.070;2023-04-25T02:01:01;2.80;;;2.23;;
15198;SDS011;7700;48.654;9.070;2023-04-25T02:03:27;2.83;;;2.63;;
15198;SDS011;7700;48.654;9.070;2023-04-25T02:05:53;3.83;;;2.90;;
15198;SDS011;7700;48.654;9.070;2023-04-25T02:08:19;3.20;;;2.90;;
15198;SDS011;7700;48.654;9.070;2023-04-25T02:13:21;2.80;;;2.60;;
15198;SDS011;7700;48.654;9.070;2023-04-25T02:15:47;3.33;;;3.03;;
15198;SDS011;7700;48.654;9.070;2023-04-25T02:18:13;3.57;;;2.70;;
15198;SDS011;7700;48.654;9.070;2023-04-25T02:20:41;3.07;;;2.60;;
15198;SDS011;7700;48.654;9.070;2023-04-25T02:23:07;3.90;;;2.50;;
15198;SDS011;7700;48.654;9.070;2023-04-25T02:25:33;3.13;;;2.60;;
15198;SDS011;7700;48.654;9.070;2023-04-25T02:27:58;3.03;;;2.40;;
15198;SDS011;7700;48.654;9.070;2023-04-25T02:30:24;5.27;;;3.17;;
15198;SDS011;7700;48.654;9.070;2023-04-25T02:32:50;3.80;;;3.17;;
15198;SDS011;7700;48.654;9.070;2023-04-25T02:35:16;3.50;;;2.73;;
15198;SDS011;7700;48.654;9.070;2023-04-25T02:37:42;3.47;;;3.13;;
15198;SDS011;7700;48.654;9.070;2023-04-25T02:40:09;4.20;;;2.77;;
15198;SDS011;7700;48.654;9.070;2023-04-25T02:42:35;4.30;;;2.63;;
15198;SDS011;7700;48.654;9.070;2023-04-25T02:45:01;2.87;;;2.67;;
15198;SDS011;7700;48.654;9.070;2023-04-25T02:47:27;2.23;;;2.13;;
15198;SDS011;7700;48.654;9.070;2023-04-25T02:49:53;3.97;;;2.83;;
15198;SDS011;7700;48.654;9.070;2023-04-25T02:52:19;2.80;;;2.60;;
15198;SDS011;7700;48.654;9.070;2023-04-25T02:54:46;2.87;;;2.60;;
15198;SDS011;7700;48.654;9.070;2023-04-25T02:57:19;2.90;;;2.60;;
15198;SDS011;7700;48.654;9.070;2023-04-25T02:59:45;3.17;;;2.87;;
15198;SDS011;7700;48.654;9.070;2023-04-25T03:02:10;3.20;;;2.80;;
15198;SDS011;7700;48.654;9.070;2023-04-25T03:04:36;3.33;;;2.60;;
15198;SDS011;7700;48.654;9.070;2023-04-25T03:07:02;3.67;;;2.77;;
15198;SDS011;7700;48.654;9.070;2023-04-25T03:09:28;4.50;;;2.97;;
15198;SDS011;7700;48.654;9.070;2023-04-25T03:11:54;3.50;;;2.70;;
15198;SDS011;7700;48.654;9.070;2023-04-25T03:14:20;3.87;;;2.80;;
15198;SDS011;7700;48.654;9.070;2023-04-25T03:16:46;4.90;;;3.00;;
15198;SDS011;7700;48.654;9.070;2023-04-25T03:19:12;3.47;;;3.17;;
15198;SDS011;7700;48.654;9.070;2023-04-25T03:21:40;5.53;;;3.37;;
15198;SDS011;7700;48.654;9.070;2023-04-25T03:24:06;3.50;;;3.20;;
15198;SDS011;7700;48.654;9.070;2023-04-25T03:26:32;3.27;;;3.00;;
15198;SDS011;7700;48.654;9.070;2023-04-25T03:28:58;3.30;;;3.10;;
15198;SDS011;7700;48.654;9.070;2023-04-25T03:31:24;6.07;;;3.70;;
15198;SDS011;7700;48.654;9.070;2023-04-25T03:33:50;3.07;;;2.57;;
15198;SDS011;7700;48.654;9.070;2023-04-25T03:36:16;5.13;;;2.77;;
15198;SDS011;7700;48.654;9.070;2023-04-25T03:38:42;3.57;;;2.70;;
15198;SDS011;7700;48.654;9.070;2023-04-25T03:41:08;3.07;;;2.53;;
15198;SDS011;7700;48.654;9.070;2023-04-25T03:43:34;2.80;;;2.47;;
15198;SDS011;7700;48.654;9.070;2023-04-25T03:46:00;3.43;;;2.80;;
15198;SDS011;7700;48.654;9.070;2023-04-25T03:48:26;2.93;;;2.40;;
15198;SDS011;7700;48.654;9.070;2023-04-25T03:50:53;2.93;;;2.63;;
15198;SDS011;7700;48.654;9.070;2023-04-25T03:53:19;3.07;;;2.60;;
15198;SDS011;7700;48.654;9.070;2023-04-25T03:55:45;4.50;;;2.87;;
15198;SDS011;7700;48.654;9.070;2023-04-25T03:58:11;4.20;;;2.90;;
15198;SDS011;7700;48.654;9.070;2023-04-25T04:00:37;3.07;;;2.77;;
15198;SDS011;7700;48.654;9.070;2023-04-25T04:03:03;4.60;;;2.90;;
15198;SDS011;7700;48.654;9.070;2023-04-25T04:05:29;4.03;;;2.73;;
15198;SDS011;7700;48.654;9.070;2023-04-25T04:08:02;4.20;;;2.73;;
15198;SDS011;7700;48.654;9.070;2023-04-25T04:10:28;4.97;;;3.10;;
15198;SDS011;7700;48.654;9.070;2023-04-25T04:12:54;6.40;;;3.53;;
15198;SDS011;7700;48.654;9.070;2023-04-25T04:15:20;4.50;;;3.10;;
15198;SDS011;7700;48.654;9.070;2023-04-25T04:17:47;4.40;;;2.80;;
15198;SDS011;7700;48.654;9.070;2023-04-25T04:20:13;3.20;;;2.90;;
15198;SDS011;7700;48.654;9.070;2023-04-25T04:22:39;4.80;;;4.03;;
15198;SDS011;7700;48.654;9.070;2023-04-25T04:25:05;5.90;;;3.40;;
15198;SDS011;7700;48.654;9.070;2023-04-25T04:27:31;4.13;;;3.03;;
15198;SDS011;7700;48.654;9.070;2023-04-25T04:29:57;3.33;;;3.03;;
15198;SDS011;7700;48.654;9.070;2023-04-25T04:32:23;4.93;;;3.40;;
15198;SDS011;7700;48.654;9.070;2023-04-25T04:34:50;4.23;;;2.90;;
15198;SDS011;7700;48.654;9.070;2023-04-25T04:37:17;3.53;;;2.93;;
15198;SDS011;7700;48.654;9.070;2023-04-25T04:39:43;4.90;;;3.67;;
15198;SDS011;7700;48.654;9.070;2023-04-25T04:42:09;6.33;;;3.60;;
15198;SDS011;7700;48.654;9.070;2023-04-25T04:44:36;4.97;;;3.93;;
15198;SDS011;7700;48.654;9.070;2023-04-25T04:47:03;4.63;;;3.93;;
15198;SDS011;7700;48.654;9.070;2023-04-25T04:49:31;4.40;;;3.73;;
15198;SDS011;7700;48.654;9.070;2023-04-25T04:51:57;4.40;;;3.73;;
15198;SDS011;7700;48.654;9.070;2023-04-25T04:54:24;4.53;;;3.70;;
15198;SDS011;7700;48.654;9.070;2023-04-25T04:56:50;5.20;;;3.63;;
15198;SDS011;7700;48.654;9.070;2023-04-25T04:59:17;6.10;;;4.40;;
15198;SDS011;7700;48.654;9.070;2023-04-25T05:01:43;11.33;;;5.80;;
15198;SDS011;7700;48.654;9.070;2023-04-25T05:04:09;18.80;;;7.20;;
15198;SDS011;7700;48.654;9.070;2023-04-25T05:06:35;8.90;;;6.53;;
15198;SDS011;7700;48.654;9.070;2023-04-25T05:09:01;6.87;;;4.43;;
15198;SDS011;7700;48.654;9.070;2023-04-25T05:11:27;5.03;;;3.70;;
15198;SDS011;7700;48.654;9.070;2023-04-25T05:13:53;3.63;;;3.30;;
15198;SDS011;7700;48.654;9.070;2023-04-25T05:16:20;4.53;;;3.40;;
15198;SDS011;7700;48.654;9.070;2023-04-25T05:18:46;4.40;;;3.17;;
15198;SDS011;7700;48.654;9.070;2023-04-25T05:21:12;3.57;;;3.27;;
15198;SDS011;7700;48.654;9.070;2023-04-25T05:23:38;5.53;;;3.37;;
15198;SDS011;7700;48.654;9.070;2023-04-25T05:26:04;5.17;;;3.67;;
15198;SDS011;7700;48.654;9.070;2023-04-25T05:28:30;4.47;;;3.63;;
15198;SDS011;7700;48.654;9.070;2023-04-25T05:30:56;4.17;;;3.83;;
15198;SDS011;7700;48.654;9.070;2023-04-25T05:33:22;4.83;;;3.27;;
15198;SDS011;7700;48.654;9.070;2023-04-25T05:35:48;5.60;;;3.40;;
15198;SDS011;7700;48.654;9.070;2023-04-25T05:38:14;3.87;;;3.57;;
15198;SDS011;7700;48.654;9.070;2023-04-25T05:40:40;5.90;;;4.00;;
15198;SDS011;7700;48.654;9.070;2023-04-25T05:43:06;5.77;;;4.10;;
15198;SDS011;7700;48.654;9.070;2023-04-25T05:45:32;6.70;;;3.80;;
15198;SDS011;7700;48.654;9.070;2023-04-25T05:47:58;5.50;;;3.87;;
15198;SDS011;7700;48.654;9.070;2023-04-25T05:50:24;3.90;;;3.60;;
15198;SDS011;7700;48.654;9.070;2023-04-25T05:52:50;5.33;;;3.60;;
15198;SDS011;7700;48.654;9.070;2023-04-25T05:55:16;6.83;;;4.10;;
15198;SDS011;7700;48.654;9.070;2023-04-25T05:57:42;4.40;;;3.80;;
15198;SDS011;7700;48.654;9.070;2023-04-25T06:00:10;3.60;;;3.30;;
15198;SDS011;7700;48.654;9.070;2023-04-25T06:02:36;4.37;;;3.70;;
15198;SDS011;7700;48.654;9.070;2023-04-25T06:05:02;4.33;;;3.93;;
15198;SDS011;7700;48.654;9.070;2023-04-25T06:07:28;3.37;;;3.03;;
15198;SDS011;7700;48.654;9.070;2023-04-25T06:09:55;3.67;;;3.37;;
15198;SDS011;7700;48.654;9.070;2023-04-25T06:12:21;4.77;;;3.57;;
15198;SDS011;7700;48.654;9.070;2023-04-25T06:14:46;3.53;;;3.30;;
15198;SDS011;7700;48.654;9.070;2023-04-25T06:17:13;3.63;;;3.33;;
15198;SDS011;7700;48.654;9.070;2023-04-25T06:19:39;5.47;;;3.50;;
15198;SDS011;7700;48.654;9.070;2023-04-25T06:22:05;5.47;;;3.90;;
15198;SDS011;7700;48.654;9.070;2023-04-25T06:24:32;6.13;;;3.43;;
15198;SDS011;7700;48.654;9.070;2023-04-25T06:26:58;4.23;;;3.30;;
15198;SDS011;7700;48.654;9.070;2023-04-25T06:29:24;5.13;;;3.53;;
15198;SDS011;7700;48.654;9.070;2023-04-25T06:31:50;3.47;;;3.17;;
15198;SDS011;7700;48.654;9.070;2023-04-25T06:34:16;3.80;;;3.37;;
15198;SDS011;7700;48.654;9.070;2023-04-25T06:36:42;4.03;;;3.27;;
15198;SDS011;7700;48.654;9.070;2023-04-25T06:39:09;3.90;;;3.40;;
15198;SDS011;7700;48.654;9.070;2023-04-25T06:41:35;3.03;;;2.63;;
15198;SDS011;7700;48.654;9.070;2023-04-25T06:44:01;5.90;;;3.50;;
15198;SDS011;7700;48.654;9.070;2023-04-25T06:46:27;2.90;;;2.70;;
15198;SDS011;7700;48.654;9.070;2023-04-25T06:48:53;4.50;;;3.70;;
15198;SDS011;7700;48.654;9.070;2023-04-25T06:51:19;5.43;;;3.67;;
15198;SDS011;7700;48.654;9.070;2023-04-25T06:53:45;5.03;;;3.23;;
15198;SDS011;7700;48.654;9.070;2023-04-25T06:56:11;3.63;;;3.33;;
15198;SDS011;7700;48.654;9.070;2023-04-25T06:58:37;5.97;;;3.60;;
15198;SDS011;7700;48.654;9.070;2023-04-25T07:01:03;4.03;;;3.73;;
15198;SDS011;7700;48.654;9.070;2023-04-25T07:03:29;3.70;;;3.30;;
15198;SDS011;7700;48.654;9.070;2023-04-25T07:05:55;4.30;;;3.70;;
15198;SDS011;7700;48.654;9.070;2023-04-25T07:08:21;4.47;;;3.80;;
15198;SDS011;7700;48.654;9.070;2023-04-25T07:10:47;4.13;;;3.63;;
15198;SDS011;7700;48.654;9.070;2023-04-25T07:13:13;3.37;;;3.07;;
15198;SDS011;7700;48.654;9.070;2023-04-25T07:15:39;3.37;;;3.07;;
15198;SDS011;7700;48.654;9.070;2023-04-25T07:18:05;3.67;;;3.13;;
15198;SDS011;7700;48.654;9.070;2023-04-25T07:20:31;4.53;;;3.73;;
15198;SDS011;7700;48.654;9.070;2023-04-25T07:22:57;4.40;;;4.07;;
15198;SDS011;7700;48.654;9.070;2023-04-25T07:25:23;4.70;;;4.10;;
15198;SDS011;7700;48.654;9.070;2023-04-25T07:27:49;4.80;;;4.40;;
15198;SDS011;7700;48.654;9.070;2023-04-25T07:30:15;6.33;;;4.37;;
15198;SDS011;7700;48.654;9.070;2023-04-25T07:32:41;4.60;;;4.20;;
15198;SDS011;7700;48.654;9.070;2023-04-25T07:35:07;5.77;;;5.27;;
15198;SDS011;7700;48.654;9.070;2023-04-25T07:37:34;5.50;;;3.73;;
15198;SDS011;7700;48.654;9.070;2023-04-25T07:40:00;5.03;;;4.63;;
15198;SDS011;7700;48.654;9.070;2023-04-25T07:42:28;5.47;;;4.80;;
15198;SDS011;7700;48.654;9.070;2023-04-25T07:44:54;9.10;;;7.07;;
15198;SDS011;7700;48.654;9.070;2023-04-25T07:47:20;15.83;;;9.63;;
15198;SDS011;7700;48.654;9.070;2023-04-25T07:49:46;9.30;;;7.10;;
15198;SDS011;7700;48.654;9.070;2023-04-25T07:52:12;6.27;;;5.60;;
15198;SDS011;7700;48.654;9.070;2023-04-25T07:54:38;8.50;;;5.80;;
15198;SDS011;7700;48.654;9.070;2023-04-25T07:57:04;7.10;;;5.53;;
15198;SDS011;7700;48.654;9.070;2023-04-25T07:59:31;5.17;;;4.70;;
15198;SDS011;7700;48.654;9.070;2023-04-25T08:01:57;4.87;;;4.13;;
15198;SDS011;7700;48.654;9.070;2023-04-25T08:04:24;3.93;;;3.53;;
15198;SDS011;7700;48.654;9.070;2023-04-25T08:06:53;5.73;;;4.03;;
15198;SDS011;7700;48.654;9.070;2023-04-25T08:09:19;4.13;;;3.83;;
15198;SDS011;7700;48.654;9.070;2023-04-25T08:11:45;4.47;;;4.03;;
15198;SDS011;7700;48.654;9.070;2023-04-25T08:14:12;4.70;;;4.27;;
15198;SDS011;7700;48.654;9.070;2023-04-25T08:16:38;5.10;;;4.70;;
15198;SDS011;7700;48.654;9.070;2023-04-25T08:19:04;5.17;;;4.77;;
15198;SDS011;7700;48.654;9.070;2023-04-25T08:21:30;5.20;;;4.80;;
15198;SDS011;7700;48.654;9.070;2023-04-25T08:23:56;5.03;;;4.63;;
15198;SDS011;7700;48.654;9.070;2023-04-25T08:26:23;5.50;;;4.90;;
15198;SDS011;7700;48.654;9.070;2023-04-25T08:28:49;4.90;;;4.50;;
15198;SDS011;7700;48.654;9.070;2023-04-25T08:31:15;5.47;;;5.07;;
15198;SDS011;7700;48.654;9.070;2023-04-25T08:33:41;6.00;;;5.40;;
15198;SDS011;7700;48.654;9.070;2023-04-25T08:36:07;10.10;;;5.83;;
15198;SDS011;7700;48.654;9.070;2023-04-25T08:38:33;5.47;;;4.97;;
15198;SDS011;7700;48.654;9.070;2023-04-25T08:40:59;4.60;;;4.20;;
15198;SDS011;7700;48.654;9.070;2023-04-25T08:43:26;3.97;;;3.60;;
15198;SDS011;7700;48.654;9.070;2023-04-25T08:45:54;4.83;;;3.77;;
15198;SDS011;7700;48.654;9.070;2023-04-25T08:48:24;4.10;;;3.50;;
15198;SDS011;7700;48.654;9.070;2023-04-25T08:50:53;4.73;;;3.50;;
15198;SDS011;7700;48.654;9.070;2023-04-25T08:53:26;4.07;;;3.40;;
15198;SDS011;7700;48.654;9.070;2023-04-25T08:55:56;3.77;;;3.47;;
15198;SDS011;7700;48.654;9.070;2023-04-25T08:58:22;4.50;;;4.10;;
15198;SDS011;7700;48.654;9.070;2023-04-25T09:00:49;4.30;;;3.60;;
15198;SDS011;7700;48.654;9.070;2023-04-25T09:03:16;4.57;;;4.17;;
15198;SDS011;7700;48.654;9.070;2023-04-25T09:05:49;4.73;;;4.00;;
15198;SDS011;7700;48.654;9.070;2023-04-25T09:08:15;4.67;;;4.27;;
15198;SDS011;7700;48.654;9.070;2023-04-25T09:10:41;4.20;;;3.90;;
15198;SDS011;7700;48.654;9.070;2023-04-25T09:15:47;5.27;;;4.87;;
15198;SDS011;7700;48.654;9.070;2023-04-25T09:18:14;5.87;;;5.27;;
15198;SDS011;7700;48.654;9.070;2023-04-25T09:20:47;5.77;;;5.27;;
15198;SDS011;7700;48.654;9.070;2023-04-25T09:23:14;6.03;;;5.43;;
15198;SDS011;7700;48.654;9.070;2023-04-25T09:25:40;5.83;;;5.23;;
15198;SDS011;7700;48.654;9.070;2023-04-25T09:28:08;4.50;;;4.10;;
15198;SDS011;7700;48.654;9.070;2023-04-25T09:30:35;3.60;;;3.30;;
15198;SDS011;7700;48.654;9.070;2023-04-25T09:33:07;4.30;;;3.97;;
15198;SDS011;7700;48.654;9.070;2023-04-25T09:35:43;4.60;;;3.53;;
15198;SDS011;7700;48.654;9.070;2023-04-25T09:38:13;4.27;;;3.97;;
15198;SDS011;7700;48.654;9.070;2023-04-25T09:40:43;5.00;;;4.60;;
15198;SDS011;7700;48.654;9.070;2023-04-25T09:43:18;4.70;;;4.30;;
15198;SDS011;7700;48.654;9.070;2023-04-25T09:45:44;3.83;;;3.53;;
15198;SDS011;7700;48.654;9.070;2023-04-25T09:48:11;3.90;;;3.60;;
15198;SDS011;7700;48.654;9.070;2023-04-25T09:50:37;3.97;;;3.63;;
15198;SDS011;7700;48.654;9.070;2023-04-25T09:53:04;3.27;;;3.07;;
15198;SDS011;7700;48.654;9.070;2023-04-25T09:55:33;2.73;;;2.53;;
15198;SDS011;7700;48.654;9.070;2023-04-25T09:58:01;1.70;;;1.60;;
15198;SDS011;7700;48.654;9.070;2023-04-25T10:03:37;1.50;;;1.40;;
15198;SDS011;7700;48.654;9.070;2023-04-25T10:06:16;1.30;;;1.20;;
15198;SDS011;7700;48.654;9.070;2023-04-25T10:08:43;2.17;;;1.97;;
15198;SDS011;7700;48.654;9.070;2023-04-25T10:11:09;1.70;;;1.33;;
15198;SDS011;7700;48.654;9.070;2023-04-25T10:13:39;1.03;;;1.00;;
15198;SDS011;7700;48.654;9.070;2023-04-25T10:16:05;1.07;;;1.00;;
15198;SDS011;7700;48.654;9.070;2023-04-25T10:18:50;0.80;;;0.80;;
15198;SDS011;7700;48.654;9.070;2023-04-25T10:21:16;1.20;;;1.10;;
15198;SDS011;7700;48.654;9.070;2023-04-25T10:23:43;3.73;;;2.03;;
15198;SDS011;7700;48.654;9.070;2023-04-25T10:26:15;2.93;;;2.17;;
15198;SDS011;7700;48.654;9.070;2023-04-25T10:28:57;2.20;;;1.40;;
15198;SDS011;7700;48.654;9.070;2023-04-25T10:31:24;1.17;;;1.13;;
15198;SDS011;7700;48.654;9.070;2023-04-25T10:33:50;0.90;;;0.90;;
15198;SDS011;7700;48.654;9.070;2023-04-25T10:36:21;0.77;;;0.77;;
15198;SDS011;7700;48.654;9.070;2023-04-25T10:38:48;1.47;;;1.10;;
15198;SDS011;7700;48.654;9.070;2023-04-25T10:41:18;0.87;;;0.87;;
15198;SDS011;7700;48.654;9.070;2023-04-25T10:43:45;1.80;;;1.00;;
15198;SDS011;7700;48.654;9.070;2023-04-25T10:46:24;1.00;;;0.90;;
15198;SDS011;7700;48.654;9.070;2023-04-25T10:48:52;1.30;;;1.20;;
15198;SDS011;7700;48.654;9.070;2023-04-25T10:51:19;1.23;;;1.13;;
15198;SDS011;7700;48.654;9.070;2023-04-25T10:54:07;1.43;;;1.00;;
15198;SDS011;7700;48.654;9.070;2023-04-25T10:56:33;1.23;;;1.13;;
15198;SDS011;7700;48.654;9.070;2023-04-25T10:59:04;1.10;;;1.00;;
15198;SDS011;7700;48.654;9.070;2023-04-25T11:01:35;2.00;;;0.70;;
15198;SDS011;7700;48.654;9.070;2023-04-25T11:04:01;1.03;;;0.90;;
15198;SDS011;7700;48.654;9.070;2023-04-25T11:09:00;0.50;;;0.40;;
15198;SDS011;7700;48.654;9.070;2023-04-25T11:11:27;0.63;;;0.63;;
15198;SDS011;7700;48.654;9.070;2023-04-25T11:13:55;0.70;;;0.70;;
15198;SDS011;7700;48.654;9.070;2023-04-25T11:16:21;0.53;;;0.53;;
15198;SDS011;7700;48.654;9.070;2023-04-25T11:18:50;0.63;;;0.60;;
15198;SDS011;7700;48.654;9.070;2023-04-25T11:21:16;0.80;;;0.80;;
15198;SDS011;7700;48.654;9.070;2023-04-25T11:23:44;0.63;;;0.60;;
15198;SDS011;7700;48.654;9.070;2023-04-25T11:26:10;2.20;;;0.80;;
15198;SDS011;7700;48.654;9.070;2023-04-25T11:28:36;0.70;;;0.70;;
15198;SDS011;7700;48.654;9.070;2023-04-25T11:31:02;0.50;;;0.50;;
15198;SDS011;7700;48.654;9.070;2023-04-25T11:33:28;0.90;;;0.90;;
15198;SDS011;7700;48.654;9.070;2023-04-25T11:35:55;0.87;;;0.87;;
15198;SDS011;7700;48.654;9.070;2023-04-25T11:38:22;0.90;;;0.90;;
15198;SDS011;7700;48.654;9.070;2023-04-25T11:40:54;0.70;;;0.70;;
15198;SDS011;7700;48.654;9.070;2023-04-25T11:43:20;0.93;;;0.80;;
15198;SDS011;7700;48.654;9.070;2023-04-25T11:45:47;0.90;;;0.90;;
15198;SDS011;7700;48.654;9.070;2023-04-25T11:48:13;1.47;;;1.10;;
15198;SDS011;7700;48.654;9.070;2023-04-25T11:50:39;2.50;;;2.17;;
15198;SDS011;7700;48.654;9.070;2023-04-25T11:53:05;2.27;;;2.00;;
15198;SDS011;7700;48.654;9.070;2023-04-25T11:55:32;2.23;;;1.70;;
15198;SDS011;7700;48.654;9.070;2023-04-25T11:57:59;1.80;;;1.60;;
15198;SDS011;7700;48.654;9.070;2023-04-25T12:00:25;1.33;;;1.23;;
15198;SDS011;7700;48.654;9.070;2023-04-25T12:02:52;1.90;;;1.30;;
15198;SDS011;7700;48.654;9.070;2023-04-25T12:05:18;1.60;;;1.50;;
15198;SDS011;7700;48.654;9.070;2023-04-25T12:07:45;1.50;;;1.40;;
15198;SDS011;7700;48.654;9.070;2023-04-25T12:10:12;2.33;;;1.60;;
15198;SDS011;7700;48.654;9.070;2023-04-25T12:12:41;2.10;;;1.83;;
15198;SDS011;7700;48.654;9.070;2023-04-25T12:15:08;1.50;;;1.40;;
15198;SDS011;7700;48.654;9.070;2023-04-25T12:17:34;1.50;;;1.40;;
15198;SDS011;7700;48.654;9.070;2023-04-25T12:20:08;1.60;;;1.50;;
15198;SDS011;7700;48.654;9.070;2023-04-25T12:22:34;1.53;;;1.43;;
15198;SDS011;7700;48.654;9.070;2023-04-25T12:25:01;1.70;;;1.60;;
15198;SDS011;7700;48.654;9.070;2023-04-25T12:27:30;1.93;;;1.70;;
15198;SDS011;7700;48.654;9.070;2023-04-25T12:29:56;2.40;;;2.20;;
15198;SDS011;7700;48.654;9.070;2023-04-25T12:32:23;2.37;;;2.17;;
15198;SDS011;7700;48.654;9.070;2023-04-25T12:34:51;3.47;;;2.27;;
15198;SDS011;7700;48.654;9.070;2023-04-25T12:37:17;3.00;;;2.70;;
15198;SDS011;7700;48.654;9.070;2023-04-25T12:39:43;3.20;;;3.00;;
15198;SDS011;7700;48.654;9.070;2023-04-25T12:42:09;3.07;;;2.77;;
15198;SDS011;7700;48.654;9.070;2023-04-25T12:44:38;3.00;;;2.80;;
15198;SDS011;7700;48.654;9.070;2023-04-25T12:47:04;3.47;;;3.13;;
15198;SDS011;7700;48.654;9.070;2023-04-25T12:49:30;3.67;;;3.37;;
15198;SDS011;7700;48.654;9.070;2023-04-25T12:51:56;5.07;;;3.43;;
15198;SDS011;7700;48.654;9.070;2023-04-25T12:54:22;3.90;;;3.60;;
15198;SDS011;7700;48.654;9.070;2023-04-25T12:56:49;3.60;;;3.30;;
15198;SDS011;7700;48.654;9.070;2023-04-25T12:59:16;4.07;;;3.67;;
15198;SDS011;7700;48.654;9.070;2023-04-25T13:01:42;6.90;;;6.20;;
15198;SDS011;7700;48.654;9.070;2023-04-25T13:04:09;5.33;;;4.70;;
15198;SDS011;7700;48.654;9.070;2023-04-25T13:06:35;4.53;;;4.13;;
15198;SDS011;7700;48.654;9.070;2023-04-25T13:09:01;3.97;;;3.53;;
15198;SDS011;7700;48.654;9.070;2023-04-25T13:11:28;4.77;;;3.90;;
15198;SDS011;7700;48.654;9.070;2023-04-25T13:13:54;4.53;;;4.13;;
15198;SDS011;7700;48.654;9.070;2023-04-25T13:16:20;3.50;;;3.30;;
15198;SDS011;7700;48.654;9.070;2023-04-25T13:18:46;4.37;;;3.97;;
15198;SDS011;7700;48.654;9.070;2023-04-25T13:21:12;5.10;;;4.60;;
15198;SDS011;7700;48.654;9.070;2023-04-25T13:23:38;5.00;;;4.60;;
15198;SDS011;7700;48.654;9.070;2023-04-25T13:26:05;4.47;;;4.17;;
15198;SDS011;7700;48.654;9.070;2023-04-25T13:28:31;6.43;;;4.80;;
15198;SDS011;7700;48.654;9.070;2023-04-25T13:30:57;5.13;;;4.73;;
15198;SDS011;7700;48.654;9.070;2023-04-25T13:33:24;5.20;;;4.70;;
15198;SDS011;7700;48.654;9.070;2023-04-25T13:35:51;6.40;;;5.07;;
15198;SDS011;7700;48.654;9.070;2023-04-25T13:38:21;4.93;;;4.47;;
15198;SDS011;7700;48.654;9.070;2023-04-25T13:40:47;4.97;;;4.47;;
15198;SDS011;7700;48.654;9.070;2023-04-25T13:43:13;5.00;;;4.60;;
15198;SDS011;7700;48.654;9.070;2023-04-25T13:45:39;5.30;;;4.80;;
15198;SDS011;7700;48.654;9.070;2023-04-25T13:48:06;5.10;;;4.70;;
15198;SDS011;7700;48.654;9.070;2023-04-25T13:50:32;6.30;;;5.30;;
15198;SDS011;7700;48.654;9.070;2023-04-25T13:52:58;6.43;;;5.83;;
15198;SDS011;7700;48.654;9.070;2023-04-25T13:55:25;6.30;;;5.67;;
15198;SDS011;7700;48.654;9.070;2023-04-25T13:57:51;7.10;;;6.43;;
15198;SDS011;7700;48.654;9.070;2023-04-25T14:00:18;6.83;;;6.23;;
15198;SDS011;7700;48.654;9.070;2023-04-25T14:02:45;7.87;;;6.53;;
15198;SDS011;7700;48.654;9.070;2023-04-25T14:05:11;6.37;;;5.87;;
15198;SDS011;7700;48.654;9.070;2023-04-25T14:07:37;5.70;;;5.20;;
15198;SDS011;7700;48.654;9.070;2023-04-25T14:10:04;6.60;;;6.00;;
15198;SDS011;7700;48.654;9.070;2023-04-25T14:12:32;6.50;;;5.90;;
15198;SDS011;7700;48.654;9.070;2023-04-25T14:14:58;6.93;;;6.33;;
15198;SDS011;7700;48.654;9.070;2023-04-25T14:17:24;6.23;;;5.63;;
15198;SDS011;7700;48.654;9.070;2023-04-25T14:19:50;6.03;;;5.50;;
15198;SDS011;7700;48.654;9.070;2023-04-25T14:22:16;7.33;;;5.40;;
15198;SDS011;7700;48.654;9.070;2023-04-25T14:24:42;6.27;;;5.67;;
15198;SDS011;7700;48.654;9.070;2023-04-25T14:27:08;5.87;;;5.37;;
15198;SDS011;7700;48.654;9.070;2023-04-25T14:29:35;5.87;;;5.37;;
15198;SDS011;7700;48.654;9.070;2023-04-25T14:32:01;6.47;;;5.87;;
15198;SDS011;7700;48.654;9.070;2023-04-25T14:34:27;6.40;;;5.80;;
15198;SDS011;7700;48.654;9.070;2023-04-25T14:36:53;6.90;;;5.53;;
15198;SDS011;7700;48.654;9.070;2023-04-25T14:39:19;6.23;;;5.73;;
15198;SDS011;7700;48.654;9.070;2023-04-25T14:41:45;5.97;;;5.47;;
15198;SDS011;7700;48.654;9.070;2023-04-25T14:44:11;5.13;;;4.63;;
15198;SDS011;7700;48.654;9.070;2023-04-25T14:46:37;5.70;;;5.20;;
15198;SDS011;7700;48.654;9.070;2023-04-25T14:49:04;5.43;;;4.97;;
15198;SDS011;7700;48.654;9.070;2023-04-25T14:51:30;5.60;;;5.00;;
15198;SDS011;7700;48.654;9.070;2023-04-25T14:53:56;5.63;;;4.73;;
15198;SDS011;7700;48.654;9.070;2023-04-25T14:56:22;4.67;;;4.27;;
15198;SDS011;7700;48.654;9.070;2023-04-25T14:58:49;4.77;;;4.33;;
15198;SDS011;7700;48.654;9.070;2023-04-25T15:01:15;5.10;;;4.00;;
15198;SDS011;7700;48.654;9.070;2023-04-25T15:03:41;5.73;;;3.93;;
15198;SDS011;7700;48.654;9.070;2023-04-25T15:06:07;4.83;;;4.37;;
15198;SDS011;7700;48.654;9.070;2023-04-25T15:08:33;4.40;;;4.00;;